Time;durP1;ratioP1;P1;durP2;ratioP2;P2;SDS_P1;SDS_P2;PMS_P1;PMS_P2;Temp;Humidity;BMP_temperature;BMP_pressure;BME280_temperature;BME280_humidity;BME280_pressure;Samples;Min_cycle;Max_cycle;Signal;HPM_P1;HPM_P2
2021/01/05 00:00:24;;;;;;;;;2.50;2.50;;;;;;;;5099744;28;11587;-74
2021/01/05 00:16:00;;;;;;;;;;;;;;;;;;5099043;28;9615;-74
2021/01/05 00:19:41;;;;;;;;;;;;;;;;;;5122288;27;10338;-75
2021/01/05 00:22:59;;;;;;;;;;;;;;;;;;5143229;27;9494;-73
2021/01/05 00:30:59;;;;;;;;;;;;;;;;;;5122553;27;9530;-73
2021/01/05 11:33:25;;;;;;;;;0.00;0.00;;;;;;;;5085039;27;13456;-71
2021/01/05 11:35:51;;;;;;;;;0.00;0.00;;;;;;;;5097937;28;11467;-78
2021/01/05 11:38:18;;;;;;;;;1.00;1.00;;;;;;;;5093228;28;11477;-76
2021/01/05 11:40:44;;;;;;;;;1.25;0.00;;;;;;;;5097815;28;9017;-73
2021/01/05 11:43:10;;;;;;;;;0.00;0.00;;;;;;;;5094091;28;12309;-74
2021/01/05 11:45:36;;;;;;;;;0.00;0.00;;;;;;;;5094998;28;9661;-73
2021/01/05 11:48:02;;;;;;;;;0.75;0.75;;;;;;;;5098420;28;11609;-74
2021/01/05 11:50:29;;;;;;;;;0.25;0.00;;;;;;;;5097506;28;8958;-75
2021/01/05 11:52:55;;;;;;;;;0.75;0.75;;;;;;;;5096537;28;11573;-74
2021/01/05 11:55:21;;;;;;;;;0.00;0.00;;;;;;;;5093670;28;11500;-73
2021/01/05 11:57:47;;;;;;;;;0.00;0.00;;;;;;;;5096159;28;8851;-75
2021/01/05 12:00:16;;;;;;;;;0.75;0.00;;;;;;;;5097512;28;11530;-74
2021/01/05 12:02:42;;;;;;;;;0.50;0.00;;;;;;;;5095047;28;8862;-73
2021/01/05 12:05:11;;;;;;;;;0.00;0.00;;;;;;;;5094042;28;11517;-74
2021/01/05 12:07:38;;;;;;;;;0.00;0.00;;;;;;;;5094294;28;8841;-75
2021/01/05 12:10:04;;;;;;;;;0.00;0.00;;;;;;;;5096755;28;11483;-73
2021/01/05 12:12:30;;;;;;;;;0.00;0.00;;;;;;;;5094086;28;11613;-75
2021/01/05 12:14:57;;;;;;;;;1.00;1.00;;;;;;;;5098279;28;11502;-74
2021/01/05 12:17:23;;;;;;;;;0.00;0.00;;;;;;;;5093723;28;8911;-73
2021/01/05 12:19:49;;;;;;;;;0.25;0.25;;;;;;;;5091999;28;11477;-73
2021/01/05 12:22:14;;;;;;;;;0.00;0.00;;;;;;;;5096355;28;8846;-73
2021/01/05 12:24:42;;;;;;;;;0.25;0.00;;;;;;;;5094667;28;8867;-72
2021/01/05 12:27:09;;;;;;;;;1.00;1.00;;;;;;;;5090299;28;8867;-73
2021/01/05 12:29:35;;;;;;;;;0.50;0.50;;;;;;;;5093775;28;11526;-68
2021/01/05 12:32:03;;;;;;;;;3.50;1.00;;;;;;;;5092229;28;11518;-68
2021/01/05 12:34:30;;;;;;;;;1.00;1.00;;;;;;;;5090924;28;11508;-65
2021/01/05 12:36:56;;;;;;;;;0.00;0.00;;;;;;;;5094475;28;11606;-65
2021/01/05 12:39:23;;;;;;;;;1.00;1.00;;;;;;;;5092574;28;11611;-66
2021/01/05 12:41:50;;;;;;;;;0.50;0.00;;;;;;;;5092908;28;11601;-66
2021/01/05 12:44:18;;;;;;;;;1.00;1.00;;;;;;;;5081163;28;11492;-66
2021/01/05 12:46:44;;;;;;;;;2.00;1.00;;;;;;;;5081606;28;11606;-68
2021/01/05 12:49:11;;;;;;;;;2.00;1.00;;;;;;;;5074709;28;11503;-65
2021/01/05 12:51:38;;;;;;;;;1.00;0.25;;;;;;;;5078372;28;11479;-64
2021/01/05 12:54:04;;;;;;;;;1.25;1.00;;;;;;;;5012402;28;11797;-65
2021/01/05 12:56:31;;;;;;;;;1.25;1.25;;;;;;;;5018793;28;12462;-69
2021/01/05 12:58:57;;;;;;;;;1.00;1.00;;;;;;;;5015411;28;11604;-68
2021/01/05 13:01:23;;;;;;;;;1.00;1.00;;;;;;;;5014490;28;11641;-70
2021/01/05 13:03:49;;;;;;;;;2.00;2.00;;;;;;;;5015714;28;11548;-67
2021/01/05 13:06:16;;;;;;;;;2.00;1.75;;;;;;;;5018593;28;8884;-67
2021/01/05 13:08:43;;;;;;;;;2.00;2.00;;;;;;;;5021875;28;11699;-68
2021/01/05 13:11:09;;;;;;;;;1.00;1.00;;;;;;;;5022525;28;11633;-68
2021/01/05 13:13:35;;;;;;;;;0.75;0.75;;;;;;;;5020752;28;11662;-69
2021/01/05 13:16:02;;;;;;;;;0.50;0.50;;;;;;;;5023613;28;11530;-73
2021/01/05 13:18:28;;;;;;;;;1.00;1.00;;;;;;;;5020306;28;8835;-71
2021/01/05 13:20:54;;;;;;;;;2.50;2.50;;;;;;;;5023184;28;11536;-70
2021/01/05 13:23:20;;;;;;;;;2.00;2.00;;;;;;;;5020276;28;8848;-70
2021/01/05 13:25:46;;;;;;;;;3.00;2.00;;;;;;;;5022695;28;8909;-70
2021/01/05 13:28:12;;;;;;;;;4.00;2.50;;;;;;;;5021109;28;8865;-70
2021/01/05 13:30:38;;;;;;;;;1.00;1.00;;;;;;;;5019784;28;8874;-69
2021/01/05 13:33:05;;;;;;;;;1.00;1.00;;;;;;;;5020450;28;8977;-69
2021/01/05 13:35:31;;;;;;;;;3.00;1.75;;;;;;;;5022220;28;9637;-69
2021/01/05 13:37:57;;;;;;;;;5.50;2.25;;;;;;;;5017600;28;11536;-69
2021/01/05 13:40:23;;;;;;;;;1.25;0.25;;;;;;;;5021157;28;8853;-68
2021/01/05 13:42:49;;;;;;;;;0.75;0.00;;;;;;;;5023019;28;8826;-68
2021/01/05 13:45:15;;;;;;;;;1.00;1.00;;;;;;;;5017507;28;11550;-67
2021/01/05 13:47:41;;;;;;;;;2.75;1.00;;;;;;;;5022376;28;8837;-69
2021/01/05 13:50:09;;;;;;;;;1.50;1.50;;;;;;;;5017167;28;12261;-69
2021/01/05 13:52:35;;;;;;;;;1.00;1.00;;;;;;;;5015963;28;8975;-69
2021/01/05 13:55:01;;;;;;;;;1.00;1.00;;;;;;;;5019923;28;11623;-69
2021/01/05 13:57:27;;;;;;;;;0.75;0.00;;;;;;;;5021996;28;8952;-68
2021/01/05 13:59:54;;;;;;;;;2.25;2.00;;;;;;;;5019812;28;8958;-69
2021/01/05 14:02:21;;;;;;;;;0.50;0.00;;;;;;;;5021307;28;11539;-69
2021/01/05 14:04:49;;;;;;;;;0.00;0.00;;;;;;;;5017170;28;11590;-69
2021/01/05 14:07:16;;;;;;;;;1.00;1.00;;;;;;;;5020159;28;11604;-68
2021/01/05 14:09:42;;;;;;;;;2.00;0.00;;;;;;;;5017492;28;11702;-67
2021/01/05 14:12:14;;;;;;;;;0.00;0.00;;;;;;;;5019432;28;11676;-67
2021/01/05 14:14:40;;;;;;;;;0.00;0.00;;;;;;;;5017873;28;12322;-67
2021/01/05 14:17:06;;;;;;;;;0.00;0.00;;;;;;;;5020126;28;11620;-68
2021/01/05 14:19:32;;;;;;;;;0.00;0.00;;;;;;;;5020769;28;8852;-68
2021/01/05 14:21:59;;;;;;;;;0.00;0.00;;;;;;;;5019328;28;8880;-68
2021/01/05 14:24:27;;;;;;;;;0.00;0.00;;;;;;;;5018749;28;9586;-68
2021/01/05 14:26:54;;;;;;;;;0.00;0.00;;;;;;;;5020317;28;11647;-67
2021/01/05 14:29:21;;;;;;;;;0.00;0.00;;;;;;;;5016702;28;11639;-68
2021/01/05 14:31:48;;;;;;;;;0.75;0.00;;;;;;;;5020620;28;11512;-68
2021/01/05 14:34:14;;;;;;;;;1.00;0.00;;;;;;;;5017824;28;11735;-69
2021/01/05 14:36:40;;;;;;;;;1.00;1.00;;;;;;;;5016623;28;11542;-69
2021/01/05 14:39:06;;;;;;;;;1.00;1.00;;;;;;;;5019256;28;8871;-68
2021/01/05 14:41:34;;;;;;;;;0.25;0.25;;;;;;;;5016559;28;9598;-68
2021/01/05 14:44:01;;;;;;;;;0.25;0.25;;;;;;;;5018272;28;11527;-67
2021/01/05 14:46:28;;;;;;;;;0.25;0.00;;;;;;;;5019214;28;11611;-67
2021/01/05 14:48:54;;;;;;;;;2.75;2.75;;;;;;;;5019625;28;11663;-68
2021/01/05 14:51:25;;;;;;;;;2.00;2.00;;;;;;;;5017602;28;11508;-68
2021/01/05 14:53:51;;;;;;;;;1.00;1.00;;;;;;;;5017420;28;11662;-68
2021/01/05 14:56:17;;;;;;;;;1.75;1.75;;;;;;;;5018365;28;11526;-69
2021/01/05 14:58:44;;;;;;;;;1.00;1.00;;;;;;;;5020517;28;9002;-70
2021/01/05 15:01:10;;;;;;;;;4.75;2.00;;;;;;;;5018459;28;11663;-68
2021/01/05 15:03:36;;;;;;;;;2.25;2.25;;;;;;;;5016398;28;11558;-69
2021/01/05 15:06:02;;;;;;;;;1.00;1.00;;;;;;;;5017050;28;8859;-67
2021/01/05 15:08:28;;;;;;;;;4.00;3.00;;;;;;;;5018304;28;8942;-66
2021/01/05 15:10:54;;;;;;;;;2.75;2.75;;;;;;;;5019409;28;12444;-67
2021/01/05 15:13:21;;;;;;;;;5.00;5.00;;;;;;;;5014669;28;11507;-67
2021/01/05 15:15:51;;;;;;;;;2.25;2.00;;;;;;;;5019721;28;8983;-67
2021/01/05 15:18:20;;;;;;;;;8.00;8.00;;;;;;;;5018784;28;12241;-68
2021/01/05 15:20:46;;;;;;;;;10.33;10.00;;;;;;;;5020026;28;11685;-69
2021/01/05 15:23:12;;;;;;;;;20.00;18.00;;;;;;;;5018916;28;11531;-69
2021/01/05 15:25:38;;;;;;;;;15.67;15.00;;;;;;;;5017033;28;8867;-69
2021/01/05 15:28:04;;;;;;;;;21.33;18.67;;;;;;;;5019391;28;8876;-71
2021/01/05 15:30:34;;;;;;;;;16.33;16.33;;;;;;;;5016105;28;8896;-67
2021/01/05 15:33:01;;;;;;;;;24.67;21.00;;;;;;;;4999068;28;10308;-68
2021/01/05 15:35:27;;;;;;;;;20.67;18.33;;;;;;;;5017503;28;8849;-68
2021/01/05 15:37:53;;;;;;;;;24.33;23.67;;;;;;;;5018671;28;8842;-68
2021/01/05 15:40:19;;;;;;;;;24.33;21.00;;;;;;;;5017712;28;8825;-68
2021/01/05 15:42:45;;;;;;;;;26.33;25.00;;;;;;;;5020306;28;8846;-68
2021/01/05 15:45:11;;;;;;;;;27.33;25.00;;;;;;;;5018678;28;9686;-68
2021/01/05 15:47:37;;;;;;;;;33.00;28.33;;;;;;;;5016174;28;8872;-68
2021/01/05 15:50:05;;;;;;;;;27.00;26.00;;;;;;;;4988063;28;10742;-68
2021/01/05 15:52:32;;;;;;;;;22.33;21.67;;;;;;;;5016719;28;9036;-69
2021/01/05 15:54:58;;;;;;;;;21.67;20.00;;;;;;;;5018625;28;8856;-68
2021/01/05 15:57:27;;;;;;;;;22.00;20.00;;;;;;;;5016645;28;8885;-67
2021/01/05 15:59:53;;;;;;;;;23.00;23.00;;;;;;;;5014404;28;8944;-68
2021/01/05 16:02:19;;;;;;;;;24.00;20.00;;;;;;;;5018455;28;9603;-69
2021/01/05 16:04:45;;;;;;;;;25.33;21.33;;;;;;;;5017275;28;9064;-70
2021/01/05 16:07:13;;;;;;;;;21.33;20.67;;;;;;;;5018082;28;8981;-70
2021/01/05 16:09:39;;;;;;;;;26.33;25.00;;;;;;;;5017613;28;8844;-68
2021/01/05 16:12:05;;;;;;;;;27.67;25.67;;;;;;;;5017630;28;9013;-69
2021/01/05 16:14:31;;;;;;;;;31.67;29.00;;;;;;;;5014113;28;8955;-71
2021/01/05 16:16:57;;;;;;;;;30.33;27.00;;;;;;;;5017745;28;8975;-73
2021/01/05 16:19:24;;;;;;;;;28.00;27.00;;;;;;;;5020106;28;8954;-70
2021/01/05 16:21:50;;;;;;;;;28.00;25.67;;;;;;;;5021615;28;8819;-68
2021/01/05 16:24:18;;;;;;;;;32.67;30.33;;;;;;;;5024670;28;8853;-68
2021/01/05 16:26:44;;;;;;;;;30.00;28.33;;;;;;;;5022711;28;9540;-69
2021/01/05 16:29:10;;;;;;;;;32.00;28.00;;;;;;;;5023204;28;8859;-69
2021/01/05 16:31:39;;;;;;;;;30.00;27.33;;;;;;;;5023092;28;8988;-69
2021/01/05 16:34:05;;;;;;;;;33.67;30.67;;;;;;;;5021333;28;9005;-69
2021/01/05 16:36:31;;;;;;;;;34.00;28.67;;;;;;;;5025625;28;8844;-69
2021/01/05 16:38:57;;;;;;;;;30.33;28.33;;;;;;;;5022837;28;8944;-70
2021/01/05 16:41:24;;;;;;;;;29.00;27.67;;;;;;;;5021153;28;9574;-71
2021/01/05 16:43:49;;;;;;;;;34.33;34.00;;;;;;;;5024249;28;8943;-69
2021/01/05 16:46:16;;;;;;;;;27.33;25.33;;;;;;;;5021058;28;8973;-68
2021/01/05 16:48:42;;;;;;;;;29.67;29.00;;;;;;;;5021482;28;8869;-68
2021/01/05 16:51:07;;;;;;;;;33.00;33.00;;;;;;;;5020541;28;9025;-69
2021/01/05 16:53:33;;;;;;;;;32.00;29.33;;;;;;;;5018368;28;8885;-69
2021/01/05 16:55:59;;;;;;;;;38.33;32.67;;;;;;;;5020169;28;8854;-69
2021/01/05 16:58:26;;;;;;;;;31.33;29.00;;;;;;;;5018693;28;8844;-71
2021/01/05 17:00:53;;;;;;;;;34.67;28.67;;;;;;;;5018719;28;8966;-69
2021/01/05 17:03:19;;;;;;;;;33.33;32.00;;;;;;;;5015860;28;8922;-70
2021/01/05 17:05:50;;;;;;;;;33.00;31.00;;;;;;;;5018923;28;8870;-72
2021/01/05 17:08:16;;;;;;;;;30.67;29.33;;;;;;;;5021039;28;8864;-71
2021/01/05 17:10:42;;;;;;;;;23.00;20.67;;;;;;;;5019928;28;8878;-70
2021/01/05 17:13:08;;;;;;;;;34.67;30.67;;;;;;;;5018794;28;8944;-71
2021/01/05 17:15:35;;;;;;;;;32.00;29.33;;;;;;;;5020354;28;8994;-70
2021/01/05 17:18:03;;;;;;;;;33.00;29.00;;;;;;;;5017568;28;8885;-69
2021/01/05 17:20:30;;;;;;;;;32.00;30.00;;;;;;;;5020113;28;8847;-70
2021/01/05 17:22:56;;;;;;;;;28.00;27.33;;;;;;;;5019626;28;8958;-70
2021/01/05 17:25:23;;;;;;;;;35.00;33.00;;;;;;;;5017981;28;8968;-70
2021/01/05 17:27:49;;;;;;;;;36.67;32.67;;;;;;;;5020001;28;8974;-69
2021/01/05 17:30:16;;;;;;;;;27.00;26.33;;;;;;;;5016162;28;8952;-69
2021/01/05 17:32:43;;;;;;;;;31.00;26.33;;;;;;;;5018545;28;8863;-70
2021/01/05 17:35:13;;;;;;;;;23.00;22.00;;;;;;;;5017652;28;8874;-71
2021/01/05 17:37:39;;;;;;;;;25.67;19.67;;;;;;;;5014846;28;9584;-70
2021/01/05 17:40:05;;;;;;;;;24.00;20.00;;;;;;;;5020419;28;9744;-67
2021/01/05 17:42:31;;;;;;;;;28.00;22.33;;;;;;;;5019112;28;8827;-70
2021/01/05 17:44:57;;;;;;;;;16.00;14.00;;;;;;;;5022296;28;8927;-69
2021/01/05 17:47:23;;;;;;;;;19.00;16.00;;;;;;;;5017952;28;8850;-69
2021/01/05 17:49:51;;;;;;;;;16.00;16.00;;;;;;;;5014897;28;8844;-69
2021/01/05 17:52:17;;;;;;;;;14.00;14.00;;;;;;;;5015656;28;8834;-70
2021/01/05 17:54:42;;;;;;;;;13.67;12.33;;;;;;;;5014648;28;8857;-70
2021/01/05 17:57:08;;;;;;;;;12.00;12.00;;;;;;;;5019390;28;8876;-68
2021/01/05 17:59:34;;;;;;;;;11.00;9.33;;;;;;;;5017250;28;8901;-69
2021/01/05 18:02:00;;;;;;;;;11.00;11.00;;;;;;;;5013547;28;8843;-71
2021/01/05 18:04:26;;;;;;;;;9.33;9.33;;;;;;;;5012805;28;8855;-70
2021/01/05 18:06:53;;;;;;;;;9.67;9.00;;;;;;;;5016493;28;8864;-70
2021/01/05 18:09:19;;;;;;;;;14.33;10.33;;;;;;;;5016276;28;8860;-71
2021/01/05 18:11:45;;;;;;;;;14.33;11.67;;;;;;;;5014503;28;9567;-71
2021/01/05 18:14:11;;;;;;;;;14.00;12.33;;;;;;;;5013589;28;8875;-71
2021/01/05 18:16:37;;;;;;;;;11.33;11.33;;;;;;;;5013145;28;8850;-70
2021/01/05 18:19:03;;;;;;;;;12.33;10.67;;;;;;;;5012768;28;8939;-71
2021/01/05 18:21:35;;;;;;;;;14.67;11.00;;;;;;;;5012488;28;8958;-71
2021/01/05 18:24:03;;;;;;;;;10.00;9.67;;;;;;;;5019539;28;8989;-71
2021/01/05 18:26:33;;;;;;;;;10.00;9.67;;;;;;;;5018069;28;9603;-70
2021/01/05 18:28:59;;;;;;;;;10.00;10.00;;;;;;;;5020067;28;8852;-70
2021/01/05 18:31:28;;;;;;;;;6.00;6.00;;;;;;;;5020282;28;8976;-70
2021/01/05 18:33:53;;;;;;;;;7.67;6.00;;;;;;;;5017167;28;8824;-71
2021/01/05 18:36:19;;;;;;;;;5.67;5.67;;;;;;;;5016524;28;8842;-71
2021/01/05 18:38:46;;;;;;;;;14.00;7.00;;;;;;;;5020561;28;8854;-70
2021/01/05 18:41:12;;;;;;;;;10.00;9.00;;;;;;;;5017598;28;8993;-69
2021/01/05 18:43:39;;;;;;;;;9.00;9.00;;;;;;;;5018877;28;8864;-68
2021/01/05 18:46:05;;;;;;;;;10.33;10.00;;;;;;;;4979068;28;10591;-69
2021/01/05 18:48:31;;;;;;;;;9.67;9.33;;;;;;;;5020717;28;8874;-69
2021/01/05 18:50:57;;;;;;;;;11.67;10.67;;;;;;;;5017089;28;9669;-69
2021/01/05 18:53:22;;;;;;;;;19.00;16.00;;;;;;;;5019926;28;8864;-69
2021/01/05 18:55:49;;;;;;;;;18.67;15.67;;;;;;;;5017760;28;8957;-69
2021/01/05 18:58:17;;;;;;;;;11.00;10.00;;;;;;;;5019260;28;8962;-69
2021/01/05 19:00:43;;;;;;;;;9.00;7.00;;;;;;;;5018813;28;8840;-69
2021/01/05 19:03:09;;;;;;;;;7.00;7.00;;;;;;;;5019552;28;9028;-71
2021/01/05 19:05:37;;;;;;;;;10.33;6.00;;;;;;;;5017729;28;8862;-72
2021/01/05 19:08:05;;;;;;;;;11.00;9.00;;;;;;;;5017781;28;8906;-76
2021/01/05 19:10:31;;;;;;;;;6.67;5.33;;;;;;;;5021515;28;8927;-71
2021/01/05 19:12:57;;;;;;;;;7.00;7.00;;;;;;;;5016843;28;8989;-73
2021/01/05 19:15:25;;;;;;;;;7.00;7.00;;;;;;;;5020576;28;8887;-73
2021/01/05 19:17:51;;;;;;;;;10.00;10.00;;;;;;;;5010935;28;8851;-73
2021/01/05 19:20:18;;;;;;;;;11.33;9.67;;;;;;;;5011985;28;8947;-71
2021/01/05 19:22:44;;;;;;;;;12.00;9.00;;;;;;;;5017064;28;9030;-73
2021/01/05 19:25:12;;;;;;;;;9.67;9.67;;;;;;;;5018972;28;9003;-70
2021/01/05 19:27:38;;;;;;;;;12.00;11.00;;;;;;;;5016273;28;8844;-68
2021/01/05 19:30:08;;;;;;;;;15.00;12.00;;;;;;;;5016599;28;8843;-67
2021/01/05 19:32:35;;;;;;;;;10.00;10.00;;;;;;;;5015028;28;8894;-68
2021/01/05 19:35:06;;;;;;;;;18.00;17.33;;;;;;;;5014998;28;8866;-73
2021/01/05 19:37:32;;;;;;;;;13.33;11.67;;;;;;;;5016944;28;8890;-72
2021/01/05 19:39:59;;;;;;;;;3.00;2.00;;;;;;;;5022026;28;8878;-70
2021/01/05 19:42:25;;;;;;;;;11.00;11.00;;;;;;;;5016739;28;8993;-73
2021/01/05 19:44:51;;;;;;;;;18.00;16.00;;;;;;;;5021528;28;8908;-71
2021/01/05 19:47:17;;;;;;;;;6.00;6.00;;;;;;;;5019505;28;8855;-71
2021/01/05 19:49:46;;;;;;;;;7.00;7.00;;;;;;;;5018907;28;8862;-72
2021/01/05 19:52:12;;;;;;;;;16.00;13.33;;;;;;;;5016213;28;9038;-72
2021/01/05 19:54:38;;;;;;;;;9.67;7.00;;;;;;;;5022011;28;8887;-73
2021/01/05 19:57:04;;;;;;;;;7.00;6.33;;;;;;;;5021002;28;8888;-72
2021/01/05 19:59:30;;;;;;;;;7.00;7.00;;;;;;;;5019685;28;8847;-72
2021/01/05 20:01:56;;;;;;;;;3.00;3.00;;;;;;;;5020382;28;8868;-75
2021/01/05 20:04:22;;;;;;;;;3.00;3.00;;;;;;;;5019192;28;8859;-74
2021/01/05 20:06:51;;;;;;;;;2.67;2.67;;;;;;;;5023358;28;8984;-81
2021/01/05 20:09:17;;;;;;;;;5.67;5.00;;;;;;;;5021278;28;8830;-77
2021/01/05 20:11:43;;;;;;;;;6.00;6.00;;;;;;;;5025444;28;8869;-73
2021/01/05 20:14:09;;;;;;;;;3.00;3.00;;;;;;;;5022374;28;8834;-73
2021/01/05 20:16:35;;;;;;;;;7.00;7.00;;;;;;;;5021665;28;8844;-72
2021/01/05 20:19:01;;;;;;;;;5.00;5.00;;;;;;;;5021437;28;8913;-70
2021/01/05 20:21:27;;;;;;;;;6.00;5.00;;;;;;;;5022903;28;8847;-71
2021/01/05 20:23:54;;;;;;;;;8.33;6.00;;;;;;;;5023934;28;8882;-71
2021/01/05 20:26:20;;;;;;;;;14.00;10.00;;;;;;;;5019738;28;8842;-71
2021/01/05 20:28:46;;;;;;;;;11.00;9.67;;;;;;;;5026514;28;9042;-72
2021/01/05 20:31:12;;;;;;;;;38.33;34.33;;;;;;;;5021521;28;11522;-73
2021/01/05 20:33:40;;;;;;;;;124.75;110.00;;;;;;;;5023247;28;8877;-72
2021/01/05 20:36:06;;;;;;;;;7.00;6.00;;;;;;;;5022613;28;9736;-74
2021/01/05 20:38:32;;;;;;;;;6.67;6.00;;;;;;;;5020024;28;8850;-74
2021/01/05 20:40:59;;;;;;;;;7.00;7.00;;;;;;;;5020301;28;11523;-73
2021/01/05 20:43:26;;;;;;;;;12.33;7.00;;;;;;;;5022905;28;8836;-76
2021/01/05 20:45:58;;;;;;;;;11.33;10.33;;;;;;;;5019670;28;8858;-77
2021/01/05 20:48:24;;;;;;;;;11.00;8.33;;;;;;;;5022767;28;11708;-72
2021/01/05 20:50:50;;;;;;;;;10.67;6.67;;;;;;;;5019915;28;8933;-74
2021/01/05 20:53:16;;;;;;;;;11.00;10.00;;;;;;;;5021550;28;9662;-73
2021/01/05 20:55:43;;;;;;;;;8.33;7.00;;;;;;;;5020823;28;8905;-75
2021/01/05 20:58:13;;;;;;;;;13.00;7.67;;;;;;;;5017423;28;8830;-73
2021/01/05 21:00:39;;;;;;;;;9.33;7.67;;;;;;;;5021100;28;11541;-77
2021/01/05 21:03:05;;;;;;;;;6.00;5.00;;;;;;;;5020957;28;11557;-85
2021/01/05 21:05:31;;;;;;;;;8.33;8.33;;;;;;;;5021420;28;9547;-76
2021/01/05 21:07:57;;;;;;;;;7.00;6.00;;;;;;;;5019753;28;11518;-78
2021/01/05 21:10:23;;;;;;;;;6.00;6.00;;;;;;;;5021940;28;11573;-75
2021/01/05 21:12:49;;;;;;;;;7.67;7.67;;;;;;;;5019709;28;8845;-76
2021/01/05 21:15:18;;;;;;;;;9.67;8.33;;;;;;;;5022024;28;8871;-73
2021/01/05 21:17:44;;;;;;;;;8.33;8.33;;;;;;;;5018780;28;8867;-73
2021/01/05 21:20:12;;;;;;;;;12.00;11.00;;;;;;;;5019080;28;11514;-73
2021/01/05 21:22:39;;;;;;;;;8.33;8.33;;;;;;;;5018896;28;8855;-74
2021/01/05 21:25:05;;;;;;;;;10.33;8.33;;;;;;;;5020417;28;8982;-75
2021/01/05 21:27:31;;;;;;;;;13.33;10.33;;;;;;;;5017796;28;8878;-74
2021/01/05 21:29:57;;;;;;;;;10.33;10.33;;;;;;;;5017967;28;8862;-76
2021/01/05 21:32:26;;;;;;;;;10.33;10.33;;;;;;;;5016016;28;8836;-75
2021/01/05 21:34:51;;;;;;;;;10.67;10.67;;;;;;;;5019227;28;8899;-75
2021/01/05 21:37:17;;;;;;;;;13.67;11.67;;;;;;;;5017721;28;8846;-74
2021/01/05 21:39:43;;;;;;;;;15.00;12.00;;;;;;;;5016785;28;9656;-73
2021/01/05 21:42:09;;;;;;;;;14.00;11.33;;;;;;;;5020247;28;9006;-77
2021/01/05 21:44:35;;;;;;;;;11.00;9.33;;;;;;;;5017832;28;8870;-76
2021/01/05 21:47:01;;;;;;;;;21.33;19.00;;;;;;;;5019361;28;8886;-77
2021/01/05 21:49:28;;;;;;;;;63.75;48.50;;;;;;;;5018119;28;8903;-77
2021/01/05 21:51:54;;;;;;;;;14.33;14.00;;;;;;;;5018932;28;8854;-76
2021/01/05 21:54:23;;;;;;;;;10.00;9.33;;;;;;;;5017273;28;8863;-76
2021/01/05 21:56:48;;;;;;;;;8.67;8.33;;;;;;;;5017417;28;8985;-77
2021/01/05 21:59:14;;;;;;;;;7.00;7.00;;;;;;;;5014927;28;8998;-77
2021/01/05 22:01:40;;;;;;;;;8.00;6.67;;;;;;;;5020396;28;8970;-75
2021/01/05 22:04:06;;;;;;;;;11.00;7.00;;;;;;;;5014559;28;8848;-77
2021/01/05 22:06:33;;;;;;;;;7.00;5.00;;;;;;;;5014916;28;8917;-76
2021/01/05 22:08:59;;;;;;;;;9.00;9.00;;;;;;;;5015241;28;9020;-75
2021/01/05 22:11:26;;;;;;;;;10.67;10.00;;;;;;;;5015089;28;8915;-75
2021/01/05 22:13:52;;;;;;;;;13.33;13.33;;;;;;;;5013083;28;8835;-76
2021/01/05 22:16:19;;;;;;;;;25.33;21.33;;;;;;;;5011375;28;8892;-75
2021/01/05 22:18:46;;;;;;;;;10.00;10.00;;;;;;;;5015702;28;8886;-75
2021/01/05 22:21:12;;;;;;;;;10.33;10.33;;;;;;;;5015490;28;8998;-75
2021/01/05 22:23:39;;;;;;;;;14.00;14.00;;;;;;;;5019458;28;8852;-74
2021/01/05 22:26:04;;;;;;;;;9.00;9.00;;;;;;;;5018123;28;8844;-73
2021/01/05 22:28:31;;;;;;;;;13.33;10.00;;;;;;;;5016250;28;8944;-73
2021/01/05 22:30:57;;;;;;;;;7.00;7.00;;;;;;;;5016402;28;8856;-72
2021/01/05 22:33:23;;;;;;;;;12.67;11.00;;;;;;;;5016593;28;8967;-73
2021/01/05 22:35:52;;;;;;;;;10.00;8.00;;;;;;;;5019243;28;9614;-72
2021/01/05 22:38:18;;;;;;;;;9.00;9.00;;;;;;;;5023529;28;8866;-72
2021/01/05 22:40:46;;;;;;;;;8.67;8.33;;;;;;;;5017620;28;8975;-74
2021/01/05 22:43:13;;;;;;;;;9.00;6.67;;;;;;;;5015451;28;8863;-73
2021/01/05 22:45:39;;;;;;;;;9.00;9.00;;;;;;;;5018200;28;8945;-72
2021/01/05 22:48:06;;;;;;;;;9.00;6.00;;;;;;;;5018455;28;8870;-72
2021/01/05 22:50:32;;;;;;;;;9.67;7.00;;;;;;;;5020073;28;8894;-73
2021/01/05 22:52:58;;;;;;;;;7.00;7.00;;;;;;;;5018148;28;8826;-73
2021/01/05 22:55:24;;;;;;;;;9.00;7.00;;;;;;;;5021072;28;8856;-72
2021/01/05 22:57:52;;;;;;;;;6.00;6.00;;;;;;;;5017845;28;8973;-74
2021/01/05 23:00:24;;;;;;;;;78.25;60.75;;;;;;;;5020881;28;8948;-74
2021/01/05 23:02:51;;;;;;;;;112.25;100.25;;;;;;;;5018560;28;8957;-74
2021/01/05 23:05:17;;;;;;;;;18.33;15.00;;;;;;;;5021791;28;8963;-74
2021/01/05 23:07:43;;;;;;;;;11.33;11.00;;;;;;;;5019322;28;8978;-74
2021/01/05 23:10:10;;;;;;;;;11.00;7.67;;;;;;;;5020780;28;8854;-74
2021/01/05 23:12:36;;;;;;;;;7.67;7.00;;;;;;;;5020421;28;8971;-74
2021/01/05 23:15:03;;;;;;;;;9.33;8.33;;;;;;;;5019487;28;8862;-75
2021/01/05 23:17:29;;;;;;;;;9.00;9.00;;;;;;;;5020937;28;8983;-75
2021/01/05 23:19:55;;;;;;;;;6.00;6.00;;;;;;;;5018742;28;8855;-74
2021/01/05 23:22:21;;;;;;;;;13.00;11.00;;;;;;;;5021484;28;8844;-74
2021/01/05 23:24:47;;;;;;;;;10.33;10.33;;;;;;;;5018540;28;8838;-74
2021/01/05 23:27:13;;;;;;;;;11.33;7.00;;;;;;;;5020630;28;8835;-74
2021/01/05 23:29:39;;;;;;;;;9.33;9.33;;;;;;;;5019574;28;8958;-73
2021/01/05 23:32:06;;;;;;;;;10.67;9.00;;;;;;;;5019647;28;8889;-75
2021/01/05 23:34:32;;;;;;;;;9.67;9.67;;;;;;;;5020255;28;9712;-74
2021/01/05 23:36:58;;;;;;;;;14.67;9.67;;;;;;;;5018749;28;8847;-74
2021/01/05 23:39:25;;;;;;;;;10.00;8.33;;;;;;;;5021474;28;9565;-74
2021/01/05 23:41:51;;;;;;;;;9.33;9.33;;;;;;;;5018255;28;8838;-74
2021/01/05 23:44:18;;;;;;;;;9.67;7.67;;;;;;;;5021155;28;8828;-74
2021/01/05 23:46:43;;;;;;;;;11.00;11.00;;;;;;;;5019866;28;8846;-74
2021/01/05 23:49:10;;;;;;;;;14.00;10.67;;;;;;;;5024359;28;8920;-73
2021/01/05 23:51:37;;;;;;;;;11.67;9.67;;;;;;;;5022940;28;8999;-73
2021/01/05 23:54:04;;;;;;;;;10.67;9.00;;;;;;;;5019868;28;8842;-75
2021/01/05 23:56:31;;;;;;;;;11.67;11.00;;;;;;;;5020149;28;8974;-76
2021/01/05 23:58:57;;;;;;;;;9.33;9.00;;;;;;;;5018259;28;8876;-74
